sensor_id;sensor_type;location;lat;lon;timestamp;P1;durP1;ratioP1;P2;durP2;ratioP2
5458;SDS011;2752;49.992;8.422;2023-04-24T00:02:03;3.57;;;1.50;;
5458;SDS011;2752;49.992;8.422;2023-04-24T00:04:31;5.90;;;1.10;;
5458;SDS011;2752;49.992;8.422;2023-04-24T00:06:58;1.43;;;1.30;;
5458;SDS011;2752;49.992;8.422;2023-04-24T00:09:25;1.67;;;1.23;;
5458;SDS011;2752;49.992;8.422;2023-04-24T00:11:52;2.20;;;1.17;;
5458;SDS011;2752;49.992;8.422;2023-04-24T00:14:19;3.70;;;1.70;;
5458;SDS011;2752;49.992;8.422;2023-04-24T00:16:47;3.90;;;1.33;;
5458;SDS011;2752;49.992;8.422;2023-04-24T00:19:13;2.83;;;1.27;;
5458;SDS011;2752;49.992;8.422;2023-04-24T00:21:40;2.83;;;1.50;;
5458;SDS011;2752;49.992;8.422;2023-04-24T00:24:07;3.50;;;1.10;;
5458;SDS011;2752;49.992;8.422;2023-04-24T00:26:34;3.77;;;1.33;;
5458;SDS011;2752;49.992;8.422;2023-04-24T00:29:01;4.50;;;1.10;;
5458;SDS011;2752;49.992;8.422;2023-04-24T00:31:28;6.70;;;1.00;;
5458;SDS011;2752;49.992;8.422;2023-04-24T00:33:56;2.00;;;1.13;;
5458;SDS011;2752;49.992;8.422;2023-04-24T00:36:23;3.00;;;1.63;;
5458;SDS011;2752;49.992;8.422;2023-04-24T00:38:50;1.67;;;1.13;;
5458;SDS011;2752;49.992;8.422;2023-04-24T00:41:16;4.63;;;1.13;;
5458;SDS011;2752;49.992;8.422;2023-04-24T00:43:43;3.00;;;1.10;;
5458;SDS011;2752;49.992;8.422;2023-04-24T00:46:10;3.73;;;1.00;;
5458;SDS011;2752;49.992;8.422;2023-04-24T00:48:38;1.30;;;0.90;;
5458;SDS011;2752;49.992;8.422;2023-04-24T00:51:07;3.37;;;1.40;;
5458;SDS011;2752;49.992;8.422;2023-04-24T00:53:34;4.73;;;1.30;;
5458;SDS011;2752;49.992;8.422;2023-04-24T00:56:01;1.47;;;1.10;;
5458;SDS011;2752;49.992;8.422;2023-04-24T00:58:28;3.50;;;3.20;;
5458;SDS011;2752;49.992;8.422;2023-04-24T01:00:55;4.10;;;1.37;;
5458;SDS011;2752;49.992;8.422;2023-04-24T01:03:24;1.63;;;1.20;;
5458;SDS011;2752;49.992;8.422;2023-04-24T01:05:53;2.43;;;1.60;;
5458;SDS011;2752;49.992;8.422;2023-04-24T01:08:22;1.73;;;1.40;;
5458;SDS011;2752;49.992;8.422;2023-04-24T01:10:50;4.80;;;1.60;;
5458;SDS011;2752;49.992;8.422;2023-04-24T01:13:18;3.03;;;1.10;;
5458;SDS011;2752;49.992;8.422;2023-04-24T01:15:45;1.87;;;1.30;;
5458;SDS011;2752;49.992;8.422;2023-04-24T01:18:12;3.27;;;1.47;;
5458;SDS011;2752;49.992;8.422;2023-04-24T01:20:39;2.40;;;1.30;;
5458;SDS011;2752;49.992;8.422;2023-04-24T01:23:10;5.90;;;1.37;;
5458;SDS011;2752;49.992;8.422;2023-04-24T01:25:37;6.30;;;1.67;;
5458;SDS011;2752;49.992;8.422;2023-04-24T01:28:04;2.63;;;1.57;;
5458;SDS011;2752;49.992;8.422;2023-04-24T01:30:30;5.73;;;1.50;;
5458;SDS011;2752;49.992;8.422;2023-04-24T01:32:57;2.80;;;1.40;;
5458;SDS011;2752;49.992;8.422;2023-04-24T01:35:25;4.03;;;1.73;;
5458;SDS011;2752;49.992;8.422;2023-04-24T01:37:52;1.93;;;1.20;;
5458;SDS011;2752;49.992;8.422;2023-04-24T01:40:20;2.40;;;2.00;;
5458;SDS011;2752;49.992;8.422;2023-04-24T01:42:47;3.30;;;1.40;;
5458;SDS011;2752;49.992;8.422;2023-04-24T01:45:13;6.27;;;1.43;;
5458;SDS011;2752;49.992;8.422;2023-04-24T01:47:40;2.47;;;1.80;;
5458;SDS011;2752;49.992;8.422;2023-04-24T01:50:08;2.40;;;1.30;;
5458;SDS011;2752;49.992;8.422;2023-04-24T01:52:35;5.10;;;1.30;;
5458;SDS011;2752;49.992;8.422;2023-04-24T01:55:02;4.40;;;1.10;;
5458;SDS011;2752;49.992;8.422;2023-04-24T01:57:31;3.63;;;1.20;;
5458;SDS011;2752;49.992;8.422;2023-04-24T01:59:58;6.20;;;1.80;;
5458;SDS011;2752;49.992;8.422;2023-04-24T02:02:25;3.07;;;1.20;;
5458;SDS011;2752;49.992;8.422;2023-04-24T02:04:53;2.30;;;1.30;;
5458;SDS011;2752;49.992;8.422;2023-04-24T02:07:20;2.20;;;1.33;;
5458;SDS011;2752;49.992;8.422;2023-04-24T02:09:47;2.30;;;1.23;;
5458;SDS011;2752;49.992;8.422;2023-04-24T02:12:14;2.80;;;1.70;;
5458;SDS011;2752;49.992;8.422;2023-04-24T02:14:42;9.50;;;2.47;;
5458;SDS011;2752;49.992;8.422;2023-04-24T02:17:09;1.63;;;1.00;;
5458;SDS011;2752;49.992;8.422;2023-04-24T02:19:38;2.03;;;1.00;;
5458;SDS011;2752;49.992;8.422;2023-04-24T02:22:05;1.63;;;1.17;;
5458;SDS011;2752;49.992;8.422;2023-04-24T02:24:31;9.53;;;1.60;;
5458;SDS011;2752;49.992;8.422;2023-04-24T02:26:58;2.70;;;1.47;;
5458;SDS011;2752;49.992;8.422;2023-04-24T02:29:25;2.20;;;1.00;;
5458;SDS011;2752;49.992;8.422;2023-04-24T02:31:53;9.57;;;1.70;;
5458;SDS011;2752;49.992;8.422;2023-04-24T02:34:19;4.27;;;1.50;;
5458;SDS011;2752;49.992;8.422;2023-04-24T02:36:46;2.40;;;1.20;;
5458;SDS011;2752;49.992;8.422;2023-04-24T02:39:13;6.57;;;1.43;;
5458;SDS011;2752;49.992;8.422;2023-04-24T02:41:41;4.73;;;1.20;;
5458;SDS011;2752;49.992;8.422;2023-04-24T02:44:08;14.50;;;0.93;;
5458;SDS011;2752;49.992;8.422;2023-04-24T02:46:34;4.03;;;1.23;;
5458;SDS011;2752;49.992;8.422;2023-04-24T02:49:02;2.97;;;1.20;;
5458;SDS011;2752;49.992;8.422;2023-04-24T02:51:29;5.17;;;1.40;;
5458;SDS011;2752;49.992;8.422;2023-04-24T02:53:56;1.60;;;1.17;;
5458;SDS011;2752;49.992;8.422;2023-04-24T02:56:22;2.17;;;1.37;;
5458;SDS011;2752;49.992;8.422;2023-04-24T02:58:49;4.73;;;1.47;;
5458;SDS011;2752;49.992;8.422;2023-04-24T03:01:16;7.03;;;1.20;;
5458;SDS011;2752;49.992;8.422;2023-04-24T03:03:42;4.20;;;1.20;;
5458;SDS011;2752;49.992;8.422;2023-04-24T03:06:10;3.90;;;1.50;;
5458;SDS011;2752;49.992;8.422;2023-04-24T03:08:37;1.50;;;1.10;;
5458;SDS011;2752;49.992;8.422;2023-04-24T03:11:04;3.97;;;1.23;;
5458;SDS011;2752;49.992;8.422;2023-04-24T03:13:30;4.60;;;0.97;;
5458;SDS011;2752;49.992;8.422;2023-04-24T03:15:57;3.70;;;0.97;;
5458;SDS011;2752;49.992;8.422;2023-04-24T03:18:24;2.37;;;0.97;;
5458;SDS011;2752;49.992;8.422;2023-04-24T03:20:51;2.67;;;1.13;;
5458;SDS011;2752;49.992;8.422;2023-04-24T03:23:19;2.03;;;0.90;;
5458;SDS011;2752;49.992;8.422;2023-04-24T03:25:46;1.10;;;0.90;;
5458;SDS011;2752;49.992;8.422;2023-04-24T03:28:13;2.63;;;0.93;;
5458;SDS011;2752;49.992;8.422;2023-04-24T03:30:40;4.17;;;1.10;;
5458;SDS011;2752;49.992;8.422;2023-04-24T03:33:08;6.53;;;1.37;;
5458;SDS011;2752;49.992;8.422;2023-04-24T03:35:34;4.77;;;1.10;;
5458;SDS011;2752;49.992;8.422;2023-04-24T03:38:01;4.77;;;1.20;;
5458;SDS011;2752;49.992;8.422;2023-04-24T03:40:30;3.33;;;1.30;;
5458;SDS011;2752;49.992;8.422;2023-04-24T03:42:58;3.47;;;1.13;;
5458;SDS011;2752;49.992;8.422;2023-04-24T03:45:25;4.23;;;1.30;;
5458;SDS011;2752;49.992;8.422;2023-04-24T03:47:51;7.00;;;1.40;;
5458;SDS011;2752;49.992;8.422;2023-04-24T03:50:18;11.13;;;1.37;;
5458;SDS011;2752;49.992;8.422;2023-04-24T03:52:45;2.90;;;1.00;;
5458;SDS011;2752;49.992;8.422;2023-04-24T03:55:11;1.57;;;1.17;;
5458;SDS011;2752;49.992;8.422;2023-04-24T03:57:40;4.23;;;1.10;;
5458;SDS011;2752;49.992;8.422;2023-04-24T04:00:07;1.33;;;1.20;;
5458;SDS011;2752;49.992;8.422;2023-04-24T04:02:34;2.63;;;1.30;;
5458;SDS011;2752;49.992;8.422;2023-04-24T04:05:01;9.70;;;1.47;;
5458;SDS011;2752;49.992;8.422;2023-04-24T04:07:28;3.70;;;1.20;;
5458;SDS011;2752;49.992;8.422;2023-04-24T04:09:55;2.23;;;1.30;;
5458;SDS011;2752;49.992;8.422;2023-04-24T04:12:22;4.47;;;1.20;;
5458;SDS011;2752;49.992;8.422;2023-04-24T04:14:50;3.67;;;1.50;;
5458;SDS011;2752;49.992;8.422;2023-04-24T04:17:16;3.97;;;1.27;;
5458;SDS011;2752;49.992;8.422;2023-04-24T04:19:43;3.83;;;1.50;;
5458;SDS011;2752;49.992;8.422;2023-04-24T04:22:10;5.40;;;1.60;;
5458;SDS011;2752;49.992;8.422;2023-04-24T04:24:36;1.60;;;1.50;;
5458;SDS011;2752;49.992;8.422;2023-04-24T04:27:05;1.40;;;1.30;;
5458;SDS011;2752;49.992;8.422;2023-04-24T04:29:33;4.00;;;1.60;;
5458;SDS011;2752;49.992;8.422;2023-04-24T04:32:01;2.60;;;1.50;;
5458;SDS011;2752;49.992;8.422;2023-04-24T04:34:27;3.47;;;1.77;;
5458;SDS011;2752;49.992;8.422;2023-04-24T04:36:54;2.83;;;1.67;;
5458;SDS011;2752;49.992;8.422;2023-04-24T04:39:21;1.67;;;1.57;;
5458;SDS011;2752;49.992;8.422;2023-04-24T04:41:48;5.20;;;1.83;;
5458;SDS011;2752;49.992;8.422;2023-04-24T04:44:15;3.67;;;2.17;;
5458;SDS011;2752;49.992;8.422;2023-04-24T04:46:41;9.33;;;2.03;;
5458;SDS011;2752;49.992;8.422;2023-04-24T04:49:10;5.30;;;1.93;;
5458;SDS011;2752;49.992;8.422;2023-04-24T04:51:38;2.60;;;1.90;;
5458;SDS011;2752;49.992;8.422;2023-04-24T04:54:04;3.37;;;1.93;;
5458;SDS011;2752;49.992;8.422;2023-04-24T04:56:31;4.63;;;1.80;;
5458;SDS011;2752;49.992;8.422;2023-04-24T04:58:58;2.13;;;1.60;;
5458;SDS011;2752;49.992;8.422;2023-04-24T05:01:24;2.57;;;1.80;;
5458;SDS011;2752;49.992;8.422;2023-04-24T05:03:52;2.40;;;1.87;;
5458;SDS011;2752;49.992;8.422;2023-04-24T05:06:20;4.00;;;1.77;;
5458;SDS011;2752;49.992;8.422;2023-04-24T05:08:47;2.50;;;1.53;;
5458;SDS011;2752;49.992;8.422;2023-04-24T05:11:13;2.30;;;1.80;;
5458;SDS011;2752;49.992;8.422;2023-04-24T05:13:40;4.30;;;1.87;;
5458;SDS011;2752;49.992;8.422;2023-04-24T05:16:07;4.93;;;1.87;;
5458;SDS011;2752;49.992;8.422;2023-04-24T05:18:34;2.30;;;1.50;;
5458;SDS011;2752;49.992;8.422;2023-04-24T05:21:00;2.23;;;1.50;;
5458;SDS011;2752;49.992;8.422;2023-04-24T05:23:28;2.90;;;1.73;;
5458;SDS011;2752;49.992;8.422;2023-04-24T05:25:55;9.23;;;2.50;;
5458;SDS011;2752;49.992;8.422;2023-04-24T05:28:22;4.73;;;2.57;;
5458;SDS011;2752;49.992;8.422;2023-04-24T05:30:53;4.10;;;2.50;;
5458;SDS011;2752;49.992;8.422;2023-04-24T05:33:20;2.70;;;2.17;;
5458;SDS011;2752;49.992;8.422;2023-04-24T05:35:47;5.23;;;2.60;;
5458;SDS011;2752;49.992;8.422;2023-04-24T05:38:13;4.70;;;2.27;;
5458;SDS011;2752;49.992;8.422;2023-04-24T05:40:44;5.83;;;2.90;;
5458;SDS011;2752;49.992;8.422;2023-04-24T05:43:10;5.10;;;2.30;;
5458;SDS011;2752;49.992;8.422;2023-04-24T05:45:37;7.00;;;2.47;;
5458;SDS011;2752;49.992;8.422;2023-04-24T05:48:04;8.50;;;2.60;;
5458;SDS011;2752;49.992;8.422;2023-04-24T05:50:31;1.80;;;1.70;;
5458;SDS011;2752;49.992;8.422;2023-04-24T05:52:58;5.77;;;2.40;;
5458;SDS011;2752;49.992;8.422;2023-04-24T05:55:24;3.00;;;2.17;;
5458;SDS011;2752;49.992;8.422;2023-04-24T05:57:52;5.57;;;2.87;;
5458;SDS011;2752;49.992;8.422;2023-04-24T06:00:20;4.20;;;3.40;;
5458;SDS011;2752;49.992;8.422;2023-04-24T06:02:46;4.97;;;2.40;;
5458;SDS011;2752;49.992;8.422;2023-04-24T06:05:13;4.13;;;2.47;;
5458;SDS011;2752;49.992;8.422;2023-04-24T06:07:40;3.03;;;2.40;;
5458;SDS011;2752;49.992;8.422;2023-04-24T06:10:07;4.73;;;2.50;;
5458;SDS011;2752;49.992;8.422;2023-04-24T06:12:35;2.63;;;2.03;;
5458;SDS011;2752;49.992;8.422;2023-04-24T06:15:04;6.53;;;3.27;;
5458;SDS011;2752;49.992;8.422;2023-04-24T06:17:31;6.83;;;3.70;;
5458;SDS011;2752;49.992;8.422;2023-04-24T06:19:58;9.07;;;3.37;;
5458;SDS011;2752;49.992;8.422;2023-04-24T06:22:24;6.40;;;2.90;;
5458;SDS011;2752;49.992;8.422;2023-04-24T06:24:51;5.30;;;2.70;;
5458;SDS011;2752;49.992;8.422;2023-04-24T06:27:18;3.20;;;2.80;;
5458;SDS011;2752;49.992;8.422;2023-04-24T06:29:44;4.07;;;2.93;;
5458;SDS011;2752;49.992;8.422;2023-04-24T06:32:18;3.93;;;2.40;;
5458;SDS011;2752;49.992;8.422;2023-04-24T06:34:45;5.20;;;2.43;;
5458;SDS011;2752;49.992;8.422;2023-04-24T06:37:12;9.17;;;3.47;;
5458;SDS011;2752;49.992;8.422;2023-04-24T06:39:38;7.13;;;3.43;;
5458;SDS011;2752;49.992;8.422;2023-04-24T06:42:05;5.10;;;3.70;;
5458;SDS011;2752;49.992;8.422;2023-04-24T06:44:33;8.93;;;3.60;;
5458;SDS011;2752;49.992;8.422;2023-04-24T06:47:02;8.60;;;3.20;;
5458;SDS011;2752;49.992;8.422;2023-04-24T06:49:30;7.67;;;3.60;;
5458;SDS011;2752;49.992;8.422;2023-04-24T06:51:57;6.77;;;3.57;;
5458;SDS011;2752;49.992;8.422;2023-04-24T06:54:23;15.33;;;4.30;;
5458;SDS011;2752;49.992;8.422;2023-04-24T06:56:50;5.30;;;3.30;;
5458;SDS011;2752;49.992;8.422;2023-04-24T06:59:17;5.07;;;3.07;;
5458;SDS011;2752;49.992;8.422;2023-04-24T07:01:44;4.70;;;3.20;;
5458;SDS011;2752;49.992;8.422;2023-04-24T07:04:10;5.23;;;3.53;;
5458;SDS011;2752;49.992;8.422;2023-04-24T07:06:39;8.63;;;3.40;;
5458;SDS011;2752;49.992;8.422;2023-04-24T07:09:05;5.93;;;2.40;;
5458;SDS011;2752;49.992;8.422;2023-04-24T07:11:34;4.87;;;2.80;;
5458;SDS011;2752;49.992;8.422;2023-04-24T07:14:02;2.50;;;2.00;;
5458;SDS011;2752;49.992;8.422;2023-04-24T07:16:29;5.40;;;2.73;;
5458;SDS011;2752;49.992;8.422;2023-04-24T07:18:56;9.67;;;3.13;;
5458;SDS011;2752;49.992;8.422;2023-04-24T07:21:22;3.13;;;2.50;;
5458;SDS011;2752;49.992;8.422;2023-04-24T07:23:51;6.37;;;2.57;;
5458;SDS011;2752;49.992;8.422;2023-04-24T07:26:18;9.73;;;3.10;;
5458;SDS011;2752;49.992;8.422;2023-04-24T07:28:45;3.50;;;2.67;;
5458;SDS011;2752;49.992;8.422;2023-04-24T07:31:12;6.57;;;3.13;;
5458;SDS011;2752;49.992;8.422;2023-04-24T07:33:39;4.20;;;2.90;;
5458;SDS011;2752;49.992;8.422;2023-04-24T07:36:05;5.33;;;3.50;;
5458;SDS011;2752;49.992;8.422;2023-04-24T07:38:32;6.17;;;4.03;;
5458;SDS011;2752;49.992;8.422;2023-04-24T07:41:00;6.40;;;3.33;;
5458;SDS011;2752;49.992;8.422;2023-04-24T07:43:27;4.20;;;3.10;;
5458;SDS011;2752;49.992;8.422;2023-04-24T07:45:53;13.90;;;3.83;;
5458;SDS011;2752;49.992;8.422;2023-04-24T07:48:20;4.67;;;3.10;;
5458;SDS011;2752;49.992;8.422;2023-04-24T07:50:47;5.33;;;2.57;;
5458;SDS011;2752;49.992;8.422;2023-04-24T07:53:13;5.83;;;2.80;;
5458;SDS011;2752;49.992;8.422;2023-04-24T07:55:40;3.53;;;2.07;;
5458;SDS011;2752;49.992;8.422;2023-04-24T07:58:08;15.47;;;3.00;;
5458;SDS011;2752;49.992;8.422;2023-04-24T08:00:35;11.53;;;2.47;;
5458;SDS011;2752;49.992;8.422;2023-04-24T08:03:01;3.93;;;2.60;;
5458;SDS011;2752;49.992;8.422;2023-04-24T08:05:28;3.63;;;1.97;;
5458;SDS011;2752;49.992;8.422;2023-04-24T08:07:55;4.43;;;2.27;;
5458;SDS011;2752;49.992;8.422;2023-04-24T08:10:22;2.90;;;2.10;;
5458;SDS011;2752;49.992;8.422;2023-04-24T08:12:49;5.23;;;2.77;;
5458;SDS011;2752;49.992;8.422;2023-04-24T08:15:17;5.10;;;3.07;;
5458;SDS011;2752;49.992;8.422;2023-04-24T08:17:44;3.10;;;1.90;;
5458;SDS011;2752;49.992;8.422;2023-04-24T08:20:11;6.17;;;2.47;;
5458;SDS011;2752;49.992;8.422;2023-04-24T08:22:39;9.77;;;3.20;;
5458;SDS011;2752;49.992;8.422;2023-04-24T08:25:06;5.00;;;2.97;;
5458;SDS011;2752;49.992;8.422;2023-04-24T08:27:33;6.30;;;2.80;;
5458;SDS011;2752;49.992;8.422;2023-04-24T08:30:01;6.67;;;2.83;;
5458;SDS011;2752;49.992;8.422;2023-04-24T08:32:29;9.43;;;3.77;;
5458;SDS011;2752;49.992;8.422;2023-04-24T08:34:56;8.60;;;2.20;;
5458;SDS011;2752;49.992;8.422;2023-04-24T08:37:24;5.77;;;2.63;;
5458;SDS011;2752;49.992;8.422;2023-04-24T08:39:51;5.83;;;2.63;;
5458;SDS011;2752;49.992;8.422;2023-04-24T08:42:18;3.20;;;1.80;;
5458;SDS011;2752;49.992;8.422;2023-04-24T08:44:46;3.90;;;2.00;;
5458;SDS011;2752;49.992;8.422;2023-04-24T08:47:14;3.90;;;1.97;;
5458;SDS011;2752;49.992;8.422;2023-04-24T08:49:43;2.43;;;1.70;;
5458;SDS011;2752;49.992;8.422;2023-04-24T08:52:10;3.33;;;2.30;;
5458;SDS011;2752;49.992;8.422;2023-04-24T08:54:39;2.90;;;2.17;;
5458;SDS011;2752;49.992;8.422;2023-04-24T08:57:08;2.13;;;1.93;;
5458;SDS011;2752;49.992;8.422;2023-04-24T08:59:36;2.70;;;2.10;;
5458;SDS011;2752;49.992;8.422;2023-04-24T09:02:04;3.90;;;2.70;;
5458;SDS011;2752;49.992;8.422;2023-04-24T09:04:32;4.33;;;2.60;;
5458;SDS011;2752;49.992;8.422;2023-04-24T09:07:02;3.20;;;2.40;;
5458;SDS011;2752;49.992;8.422;2023-04-24T09:09:32;3.60;;;2.30;;
5458;SDS011;2752;49.992;8.422;2023-04-24T09:12:00;3.77;;;2.30;;
5458;SDS011;2752;49.992;8.422;2023-04-24T09:14:28;3.87;;;2.73;;
5458;SDS011;2752;49.992;8.422;2023-04-24T09:16:56;5.20;;;2.40;;
5458;SDS011;2752;49.992;8.422;2023-04-24T09:19:23;2.63;;;2.17;;
5458;SDS011;2752;49.992;8.422;2023-04-24T09:21:51;7.13;;;1.97;;
5458;SDS011;2752;49.992;8.422;2023-04-24T09:24:20;3.13;;;2.10;;
5458;SDS011;2752;49.992;8.422;2023-04-24T09:26:48;2.83;;;1.97;;
5458;SDS011;2752;49.992;8.422;2023-04-24T09:29:22;3.27;;;1.90;;
5458;SDS011;2752;49.992;8.422;2023-04-24T09:31:48;3.10;;;2.07;;
5458;SDS011;2752;49.992;8.422;2023-04-24T09:34:18;9.70;;;2.90;;
5458;SDS011;2752;49.992;8.422;2023-04-24T09:36:47;2.97;;;2.00;;
5458;SDS011;2752;49.992;8.422;2023-04-24T09:39:14;3.43;;;2.07;;
5458;SDS011;2752;49.992;8.422;2023-04-24T09:41:47;3.53;;;2.33;;
5458;SDS011;2752;49.992;8.422;2023-04-24T09:44:15;2.07;;;1.60;;
5458;SDS011;2752;49.992;8.422;2023-04-24T09:46:45;1.93;;;1.43;;
5458;SDS011;2752;49.992;8.422;2023-04-24T09:49:15;2.80;;;1.90;;
5458;SDS011;2752;49.992;8.422;2023-04-24T09:51:43;3.03;;;2.03;;
5458;SDS011;2752;49.992;8.422;2023-04-24T09:54:13;4.13;;;1.80;;
5458;SDS011;2752;49.992;8.422;2023-04-24T09:56:42;2.20;;;1.77;;
5458;SDS011;2752;49.992;8.422;2023-04-24T09:59:11;5.40;;;2.07;;
5458;SDS011;2752;49.992;8.422;2023-04-24T10:01:38;4.00;;;1.83;;
5458;SDS011;2752;49.992;8.422;2023-04-24T10:04:14;9.00;;;2.20;;
5458;SDS011;2752;49.992;8.422;2023-04-24T10:06:43;3.40;;;1.47;;
5458;SDS011;2752;49.992;8.422;2023-04-24T10:09:10;2.30;;;1.57;;
5458;SDS011;2752;49.992;8.422;2023-04-24T10:11:38;2.27;;;1.60;;
5458;SDS011;2752;49.992;8.422;2023-04-24T10:14:09;5.00;;;1.70;;
5458;SDS011;2752;49.992;8.422;2023-04-24T10:16:38;5.80;;;1.57;;
5458;SDS011;2752;49.992;8.422;2023-04-24T10:19:06;4.57;;;2.27;;
5458;SDS011;2752;49.992;8.422;2023-04-24T10:21:32;3.47;;;1.47;;
5458;SDS011;2752;49.992;8.422;2023-04-24T10:24:00;4.13;;;2.37;;
5458;SDS011;2752;49.992;8.422;2023-04-24T10:26:28;3.43;;;2.00;;
5458;SDS011;2752;49.992;8.422;2023-04-24T10:28:56;2.23;;;2.00;;
5458;SDS011;2752;49.992;8.422;2023-04-24T10:31:23;4.90;;;1.90;;
5458;SDS011;2752;49.992;8.422;2023-04-24T10:33:52;3.50;;;1.97;;
5458;SDS011;2752;49.992;8.422;2023-04-24T10:36:20;2.43;;;1.90;;
5458;SDS011;2752;49.992;8.422;2023-04-24T10:38:51;10.00;;;1.70;;
5458;SDS011;2752;49.992;8.422;2023-04-24T10:41:20;4.67;;;1.90;;
5458;SDS011;2752;49.992;8.422;2023-04-24T10:43:48;4.50;;;2.17;;
5458;SDS011;2752;49.992;8.422;2023-04-24T10:46:29;8.60;;;2.00;;
5458;SDS011;2752;49.992;8.422;2023-04-24T10:48:58;3.17;;;2.00;;
5458;SDS011;2752;49.992;8.422;2023-04-24T10:51:26;2.00;;;1.80;;
5458;SDS011;2752;49.992;8.422;2023-04-24T10:54:23;2.87;;;1.80;;
5458;SDS011;2752;49.992;8.422;2023-04-24T10:56:52;4.10;;;1.67;;
5458;SDS011;2752;49.992;8.422;2023-04-24T10:59:25;1.40;;;1.23;;
5458;SDS011;2752;49.992;8.422;2023-04-24T11:01:52;1.70;;;1.30;;
5458;SDS011;2752;49.992;8.422;2023-04-24T11:04:30;2.30;;;1.40;;
5458;SDS011;2752;49.992;8.422;2023-04-24T11:06:58;1.17;;;1.07;;
5458;SDS011;2752;49.992;8.422;2023-04-24T11:09:26;2.53;;;1.60;;
5458;SDS011;2752;49.992;8.422;2023-04-24T11:12:02;3.30;;;1.87;;
5458;SDS011;2752;49.992;8.422;2023-04-24T11:14:31;1.10;;;1.00;;
5458;SDS011;2752;49.992;8.422;2023-04-24T11:17:29;1.60;;;0.90;;
5458;SDS011;2752;49.992;8.422;2023-04-24T11:20:01;1.20;;;0.80;;
5458;SDS011;2752;49.992;8.422;2023-04-24T11:22:32;3.23;;;1.23;;
5458;SDS011;2752;49.992;8.422;2023-04-24T11:25:01;1.63;;;0.90;;
5458;SDS011;2752;49.992;8.422;2023-04-24T11:27:29;3.20;;;1.50;;
5458;SDS011;2752;49.992;8.422;2023-04-24T11:30:00;1.73;;;1.37;;
5458;SDS011;2752;49.992;8.422;2023-04-24T11:32:29;1.67;;;0.93;;
5458;SDS011;2752;49.992;8.422;2023-04-24T11:35:00;1.10;;;1.00;;
5458;SDS011;2752;49.992;8.422;2023-04-24T11:37:30;1.00;;;0.80;;
5458;SDS011;2752;49.992;8.422;2023-04-24T11:40:00;3.30;;;0.87;;
5458;SDS011;2752;49.992;8.422;2023-04-24T11:42:28;7.63;;;1.00;;
5458;SDS011;2752;49.992;8.422;2023-04-24T11:44:59;0.90;;;0.80;;
5458;SDS011;2752;49.992;8.422;2023-04-24T11:47:27;1.53;;;0.93;;
5458;SDS011;2752;49.992;8.422;2023-04-24T11:49:54;1.27;;;0.90;;
5458;SDS011;2752;49.992;8.422;2023-04-24T11:52:22;3.40;;;1.10;;
5458;SDS011;2752;49.992;8.422;2023-04-24T11:54:49;1.27;;;1.17;;
5458;SDS011;2752;49.992;8.422;2023-04-24T11:57:16;1.10;;;0.90;;
5458;SDS011;2752;49.992;8.422;2023-04-24T11:59:44;3.10;;;1.30;;
5458;SDS011;2752;49.992;8.422;2023-04-24T12:02:19;1.37;;;1.27;;
5458;SDS011;2752;49.992;8.422;2023-04-24T12:04:46;1.70;;;1.23;;
5458;SDS011;2752;49.992;8.422;2023-04-24T12:07:13;2.60;;;1.60;;
5458;SDS011;2752;49.992;8.422;2023-04-24T12:09:41;3.53;;;1.70;;
5458;SDS011;2752;49.992;8.422;2023-04-24T12:12:10;2.70;;;1.80;;
5458;SDS011;2752;49.992;8.422;2023-04-24T12:14:44;3.53;;;1.47;;
5458;SDS011;2752;49.992;8.422;2023-04-24T12:17:13;4.40;;;1.83;;
5458;SDS011;2752;49.992;8.422;2023-04-24T12:19:44;2.17;;;1.70;;
5458;SDS011;2752;49.992;8.422;2023-04-24T12:22:12;3.80;;;1.60;;
5458;SDS011;2752;49.992;8.422;2023-04-24T12:27:29;4.50;;;2.33;;
5458;SDS011;2752;49.992;8.422;2023-04-24T12:29:58;4.67;;;2.43;;
5458;SDS011;2752;49.992;8.422;2023-04-24T12:32:26;3.17;;;2.10;;
5458;SDS011;2752;49.992;8.422;2023-04-24T12:34:53;5.23;;;2.40;;
5458;SDS011;2752;49.992;8.422;2023-04-24T12:37:20;7.77;;;2.80;;
5458;SDS011;2752;49.992;8.422;2023-04-24T12:39:59;6.73;;;2.70;;
5458;SDS011;2752;49.992;8.422;2023-04-24T12:42:30;6.33;;;2.40;;
5458;SDS011;2752;49.992;8.422;2023-04-24T12:44:58;5.97;;;2.80;;
5458;SDS011;2752;49.992;8.422;2023-04-24T12:47:26;5.10;;;2.87;;
5458;SDS011;2752;49.992;8.422;2023-04-24T12:49:53;5.10;;;2.87;;
5458;SDS011;2752;49.992;8.422;2023-04-24T12:52:20;2.90;;;2.17;;
5458;SDS011;2752;49.992;8.422;2023-04-24T12:54:47;4.30;;;3.20;;
5458;SDS011;2752;49.992;8.422;2023-04-24T12:57:15;6.07;;;3.00;;
5458;SDS011;2752;49.992;8.422;2023-04-24T12:59:42;3.83;;;3.00;;
5458;SDS011;2752;49.992;8.422;2023-04-24T13:02:08;3.03;;;2.37;;
5458;SDS011;2752;49.992;8.422;2023-04-24T13:04:35;3.10;;;2.20;;
5458;SDS011;2752;49.992;8.422;2023-04-24T13:07:02;5.57;;;2.73;;
5458;SDS011;2752;49.992;8.422;2023-04-24T13:09:29;3.10;;;1.90;;
5458;SDS011;2752;49.992;8.422;2023-04-24T13:11:56;3.47;;;2.23;;
5458;SDS011;2752;49.992;8.422;2023-04-24T13:14:24;4.20;;;2.40;;
5458;SDS011;2752;49.992;8.422;2023-04-24T13:16:51;6.80;;;2.37;;
5458;SDS011;2752;49.992;8.422;2023-04-24T13:19:18;9.97;;;2.10;;
5458;SDS011;2752;49.992;8.422;2023-04-24T13:21:44;5.20;;;2.73;;
5458;SDS011;2752;49.992;8.422;2023-04-24T13:24:11;5.90;;;2.57;;
5458;SDS011;2752;49.992;8.422;2023-04-24T13:26:38;6.87;;;2.73;;
5458;SDS011;2752;49.992;8.422;2023-04-24T13:29:05;4.17;;;1.90;;
5458;SDS011;2752;49.992;8.422;2023-04-24T13:31:33;3.13;;;1.90;;
5458;SDS011;2752;49.992;8.422;2023-04-24T13:34:00;5.77;;;2.77;;
5458;SDS011;2752;49.992;8.422;2023-04-24T13:36:27;8.53;;;2.37;;
5458;SDS011;2752;49.992;8.422;2023-04-24T13:38:53;1.93;;;1.60;;
5458;SDS011;2752;49.992;8.422;2023-04-24T13:41:20;6.80;;;3.37;;
5458;SDS011;2752;49.992;8.422;2023-04-24T13:43:47;6.03;;;2.83;;
5458;SDS011;2752;49.992;8.422;2023-04-24T13:46:13;6.13;;;2.47;;
5458;SDS011;2752;49.992;8.422;2023-04-24T13:48:41;5.83;;;3.17;;
5458;SDS011;2752;49.992;8.422;2023-04-24T13:51:08;8.90;;;3.23;;
5458;SDS011;2752;49.992;8.422;2023-04-24T13:53:35;7.10;;;3.00;;
5458;SDS011;2752;49.992;8.422;2023-04-24T13:56:03;5.87;;;2.97;;
5458;SDS011;2752;49.992;8.422;2023-04-24T13:58:30;9.67;;;3.10;;
5458;SDS011;2752;49.992;8.422;2023-04-24T14:00:57;8.73;;;3.57;;
5458;SDS011;2752;49.992;8.422;2023-04-24T14:03:24;7.27;;;2.97;;
5458;SDS011;2752;49.992;8.422;2023-04-24T14:05:52;5.87;;;3.17;;
5458;SDS011;2752;49.992;8.422;2023-04-24T14:08:19;6.23;;;3.00;;
5458;SDS011;2752;49.992;8.422;2023-04-24T14:10:45;7.33;;;2.97;;
5458;SDS011;2752;49.992;8.422;2023-04-24T14:13:12;6.13;;;3.40;;
5458;SDS011;2752;49.992;8.422;2023-04-24T14:15:39;9.53;;;3.27;;
5458;SDS011;2752;49.992;8.422;2023-04-24T14:18:06;10.83;;;2.73;;
5458;SDS011;2752;49.992;8.422;2023-04-24T14:20:32;7.20;;;3.37;;
5458;SDS011;2752;49.992;8.422;2023-04-24T14:23:00;7.17;;;3.10;;
5458;SDS011;2752;49.992;8.422;2023-04-24T14:25:27;2.33;;;2.13;;
5458;SDS011;2752;49.992;8.422;2023-04-24T14:27:54;3.93;;;2.83;;
5458;SDS011;2752;49.992;8.422;2023-04-24T14:30:21;3.77;;;2.20;;
5458;SDS011;2752;49.992;8.422;2023-04-24T14:32:48;8.27;;;2.80;;
5458;SDS011;2752;49.992;8.422;2023-04-24T14:35:15;3.10;;;2.40;;
5458;SDS011;2752;49.992;8.422;2023-04-24T14:37:41;8.70;;;3.10;;
5458;SDS011;2752;49.992;8.422;2023-04-24T14:40:10;4.80;;;2.83;;
5458;SDS011;2752;49.992;8.422;2023-04-24T14:42:37;4.50;;;2.80;;
5458;SDS011;2752;49.992;8.422;2023-04-24T14:45:04;5.57;;;2.40;;
5458;SDS011;2752;49.992;8.422;2023-04-24T14:47:31;6.67;;;3.00;;
5458;SDS011;2752;49.992;8.422;2023-04-24T14:49:58;4.40;;;1.90;;
5458;SDS011;2752;49.992;8.422;2023-04-24T14:52:25;5.60;;;2.63;;
5458;SDS011;2752;49.992;8.422;2023-04-24T14:54:51;6.10;;;2.83;;
5458;SDS011;2752;49.992;8.422;2023-04-24T14:57:19;5.53;;;2.70;;
5458;SDS011;2752;49.992;8.422;2023-04-24T14:59:46;6.33;;;2.90;;
5458;SDS011;2752;49.992;8.422;2023-04-24T15:02:13;5.40;;;2.40;;
5458;SDS011;2752;49.992;8.422;2023-04-24T15:04:39;8.40;;;3.03;;
5458;SDS011;2752;49.992;8.422;2023-04-24T15:07:06;5.20;;;3.10;;
5458;SDS011;2752;49.992;8.422;2023-04-24T15:09:32;4.77;;;2.80;;
5458;SDS011;2752;49.992;8.422;2023-04-24T15:11:59;4.93;;;3.27;;
5458;SDS011;2752;49.992;8.422;2023-04-24T15:14:28;8.43;;;2.90;;
5458;SDS011;2752;49.992;8.422;2023-04-24T15:16:55;8.57;;;3.20;;
5458;SDS011;2752;49.992;8.422;2023-04-24T15:19:21;6.53;;;2.80;;
5458;SDS011;2752;49.992;8.422;2023-04-24T15:21:48;3.90;;;2.80;;